Time;durP1;ratioP1;P1;durP2;ratioP2;P2;SDS_P1;SDS_P2;PMS_P1;PMS_P2;Temp;Humidity;BMP_temperature;BMP_pressure;BME280_temperature;BME280_humidity;BME280_pressure;Samples;Min_cycle;Max_cycle;Signal;HPM_P1;HPM_P2
2022/11/09 00:01:32;;;;;;;7.75;2.47;;;15.30;99.90;;;;;;5030044;28;20030;-72
2022/11/09 00:03:59;;;;;;;4.85;2.28;;;15.30;99.90;;;;;;5030877;28;20033;-71
2022/11/09 00:06:26;;;;;;;3.95;1.65;;;15.30;99.90;;;;;;5032064;28;20029;-70
2022/11/09 00:08:52;;;;;;;8.77;2.28;;;15.30;99.90;;;;;;5033258;28;20104;-72
2022/11/09 00:11:18;;;;;;;4.70;1.85;;;15.20;99.90;;;;;;5033670;28;20021;-71
2022/11/09 00:13:44;;;;;;;7.15;2.30;;;15.20;99.90;;;;;;5033626;28;20044;-72
2022/11/09 00:16:12;;;;;;;5.82;1.83;;;15.20;99.90;;;;;;5029818;28;20117;-71
2022/11/09 00:18:40;;;;;;;2.88;1.55;;;15.20;99.90;;;;;;5032789;28;20572;-71
2022/11/09 00:21:11;;;;;;;4.47;1.95;;;15.20;99.90;;;;;;5032451;28;20152;-71
2022/11/09 00:23:37;;;;;;;6.63;1.67;;;15.20;99.90;;;;;;5031411;28;20475;-71
2022/11/09 00:26:04;;;;;;;5.82;2.20;;;15.20;99.90;;;;;;5032855;28;20052;-71
2022/11/09 00:28:30;;;;;;;6.20;1.88;;;15.20;99.90;;;;;;5029675;28;20017;-72
2022/11/09 00:31:04;;;;;;;6.20;1.77;;;15.20;99.90;;;;;;5032923;28;20014;-71
2022/11/09 00:33:29;;;;;;;7.25;2.33;;;15.10;99.90;;;;;;5047751;28;20435;-70
2022/11/09 00:35:55;;;;;;;3.10;1.45;;;15.10;99.90;;;;;;5032982;28;20040;-73
2022/11/09 00:38:21;;;;;;;4.25;1.60;;;15.10;99.90;;;;;;5033317;28;20048;-72
2022/11/09 00:40:49;;;;;;;6.30;1.90;;;15.10;99.90;;;;;;5033489;28;20060;-70
2022/11/09 00:43:17;;;;;;;4.45;1.75;;;15.10;99.90;;;;;;5028750;28;20033;-71
2022/11/09 00:45:45;;;;;;;2.35;1.88;;;15.10;99.90;;;;;;5031252;28;20117;-74
2022/11/09 00:48:13;;;;;;;3.53;1.80;;;15.10;99.90;;;;;;5032634;28;20840;-72
2022/11/09 00:50:39;;;;;;;5.57;1.35;;;15.10;99.90;;;;;;5031817;28;20022;-72
2022/11/09 00:53:07;;;;;;;1.85;1.50;;;15.20;99.90;;;;;;5032910;28;20029;-73
2022/11/09 00:55:33;;;;;;;4.90;1.90;;;15.10;99.90;;;;;;5032742;28;20049;-72
2022/11/09 00:57:58;;;;;;;2.50;1.40;;;15.20;99.90;;;;;;5032524;28;20057;-75
2022/11/09 01:00:24;;;;;;;4.63;1.70;;;15.20;99.90;;;;;;5032638;28;20076;-72
2022/11/09 01:02:50;;;;;;;5.82;1.48;;;15.10;99.90;;;;;;5033945;28;20445;-71
2022/11/09 01:05:18;;;;;;;2.90;1.58;;;15.20;99.90;;;;;;5033787;28;20033;-72
2022/11/09 01:07:44;;;;;;;4.97;1.30;;;15.20;99.90;;;;;;5032319;28;20606;-72
2022/11/09 01:10:12;;;;;;;3.67;2.00;;;15.30;99.90;;;;;;5033194;28;20518;-73
2022/11/09 01:12:37;;;;;;;1.98;1.30;;;15.20;99.90;;;;;;5031297;28;20423;-72
2022/11/09 01:15:03;;;;;;;3.45;1.48;;;15.20;99.90;;;;;;5031927;28;20112;-72
2022/11/09 01:17:29;;;;;;;2.72;1.73;;;15.30;99.90;;;;;;5033797;28;20414;-73
2022/11/09 01:19:55;;;;;;;4.00;1.88;;;15.30;99.90;;;;;;5032619;28;20033;-71
2022/11/09 01:22:20;;;;;;;3.70;1.52;;;15.30;99.90;;;;;;5035609;28;20040;-71
2022/11/09 01:24:46;;;;;;;8.27;1.60;;;15.30;99.90;;;;;;5031812;28;20033;-71
2022/11/09 01:27:12;;;;;;;2.25;1.45;;;15.30;99.90;;;;;;5030612;28;20025;-71
2022/11/09 01:29:38;;;;;;;8.00;1.58;;;15.30;99.90;;;;;;5032178;28;20047;-71
2022/11/09 01:32:03;;;;;;;3.17;1.40;;;15.40;99.90;;;;;;5035451;28;20098;-71
2022/11/09 01:34:29;;;;;;;2.85;1.63;;;15.30;99.90;;;;;;5030738;28;20040;-72
2022/11/09 01:36:55;;;;;;;3.47;1.77;;;15.30;99.90;;;;;;5030495;28;20104;-72
2022/11/09 01:39:23;;;;;;;2.88;1.60;;;15.30;99.90;;;;;;5031960;28;20371;-71
2022/11/09 01:41:51;;;;;;;4.20;1.38;;;15.30;99.90;;;;;;5029281;28;20037;-70
2022/11/09 01:44:22;;;;;;;7.10;1.85;;;15.30;99.90;;;;;;5030927;28;20126;-72
2022/11/09 01:46:48;;;;;;;5.30;1.40;;;15.20;99.90;;;;;;5030353;28;20052;-71
2022/11/09 01:49:31;;;;;;;3.78;1.65;;;15.20;99.90;;;;;;5031845;28;20389;-72
2022/11/09 01:52:04;;;;;;;3.35;2.17;;;15.20;99.90;;;;;;5031321;28;20036;-72
2022/11/09 01:54:36;;;;;;;6.43;2.22;;;15.20;99.90;;;;;;5030635;28;20048;-73
2022/11/09 01:57:06;;;;;;;3.53;1.35;;;15.10;99.90;;;;;;5028238;28;20046;-71
2022/11/09 01:59:42;;;;;;;5.32;1.70;;;15.10;99.90;;;;;;5030676;28;20021;-72
2022/11/09 02:02:08;;;;;;;3.70;1.58;;;15.20;99.90;;;;;;5031250;28;20112;-71
2022/11/09 02:04:40;;;;;;;3.90;1.40;;;15.10;99.90;;;;;;5030162;28;20021;-71
2022/11/09 02:07:06;;;;;;;4.18;1.92;;;15.10;99.90;;;;;;5023340;28;20049;-72
2022/11/09 02:09:54;;;;;;;3.65;1.80;;;15.00;99.90;;;;;;5030958;28;20029;-72
2022/11/09 02:12:22;;;;;;;5.00;1.90;;;15.00;99.90;;;;;;5030785;28;20104;-71
2022/11/09 02:14:51;;;;;;;4.53;1.75;;;14.90;99.90;;;;;;5031161;28;20715;-70
2022/11/09 02:17:20;;;;;;;6.68;1.92;;;15.00;99.90;;;;;;5031272;28;20029;-71
2022/11/09 02:19:49;;;;;;;4.20;1.70;;;14.90;99.90;;;;;;5031360;28;20464;-71
2022/11/09 02:22:14;;;;;;;3.13;1.23;;;14.90;99.90;;;;;;5027539;28;20084;-71
2022/11/09 02:24:40;;;;;;;6.20;1.75;;;14.90;99.90;;;;;;5027383;28;20064;-73
2022/11/09 02:27:06;;;;;;;3.90;1.50;;;14.90;99.90;;;;;;5030381;28;20076;-71
2022/11/09 02:29:36;;;;;;;3.20;1.58;;;14.80;99.90;;;;;;5031055;28;20033;-72
2022/11/09 02:32:07;;;;;;;4.90;1.40;;;14.80;99.90;;;;;;5031128;28;20075;-70
2022/11/09 02:34:35;;;;;;;5.05;1.35;;;14.80;99.90;;;;;;5031176;28;20033;-71
2022/11/09 02:37:01;;;;;;;11.75;1.63;;;14.80;99.90;;;;;;5031093;28;20029;-72
2022/11/09 02:39:27;;;;;;;4.47;1.30;;;14.80;99.90;;;;;;5027940;28;20036;-72
2022/11/09 02:42:06;;;;;;;3.55;1.40;;;14.80;99.90;;;;;;5031032;28;20041;-72
2022/11/09 02:44:39;;;;;;;4.78;1.50;;;14.80;99.90;;;;;;5029432;28;20136;-71
2022/11/09 02:47:04;;;;;;;1.83;0.97;;;14.90;99.90;;;;;;5027774;28;20466;-73
2022/11/09 02:49:30;;;;;;;5.07;1.38;;;14.80;99.90;;;;;;5029705;28;20021;-71
2022/11/09 02:51:58;;;;;;;4.43;1.30;;;14.80;99.90;;;;;;5029325;28;20037;-72
2022/11/09 02:54:24;;;;;;;2.83;1.20;;;14.90;99.90;;;;;;5030881;28;20105;-71
2022/11/09 02:56:49;;;;;;;2.70;1.30;;;14.80;99.90;;;;;;5030552;28;20343;-72
2022/11/09 02:59:15;;;;;;;6.60;1.25;;;15.00;99.90;;;;;;5032328;28;20033;-73
2022/11/09 03:01:41;;;;;;;5.38;1.23;;;15.00;99.90;;;;;;5031753;28;20025;-73
2022/11/09 03:04:06;;;;;;;5.82;1.30;;;15.00;99.90;;;;;;5030653;28;20108;-72
2022/11/09 03:06:35;;;;;;;1.20;0.90;;;15.10;99.90;;;;;;5029868;28;20017;-72
2022/11/09 03:09:05;;;;;;;3.95;1.13;;;15.10;99.90;;;;;;5030485;28;20087;-74
2022/11/09 03:11:32;;;;;;;5.10;0.93;;;15.00;99.90;;;;;;5032423;28;20017;-72
2022/11/09 03:13:57;;;;;;;2.15;1.35;;;15.10;99.90;;;;;;5030589;28;20029;-71
2022/11/09 03:16:26;;;;;;;7.18;1.75;;;15.10;99.90;;;;;;5030726;28;20431;-73
2022/11/09 03:18:51;;;;;;;3.30;1.10;;;15.10;99.90;;;;;;5030157;28;20033;-73
2022/11/09 03:21:18;;;;;;;5.30;1.48;;;15.20;99.90;;;;;;5028305;28;20339;-72
2022/11/09 03:23:48;;;;;;;6.82;1.23;;;15.20;99.90;;;;;;5034571;28;20028;-73
2022/11/09 03:26:14;;;;;;;11.48;1.08;;;15.30;99.90;;;;;;5029070;28;20044;-71
2022/11/09 03:28:40;;;;;;;3.70;1.40;;;15.30;99.90;;;;;;5030603;28;20018;-73
2022/11/09 03:31:07;;;;;;;3.55;1.00;;;15.20;99.90;;;;;;5032584;28;20097;-76
2022/11/09 03:33:32;;;;;;;4.68;1.30;;;15.20;99.90;;;;;;5031275;28;20079;-73
2022/11/09 03:36:01;;;;;;;13.00;1.63;;;15.20;99.90;;;;;;5031352;28;20033;-72
2022/11/09 03:38:26;;;;;;;4.10;1.00;;;15.20;99.90;;;;;;5027175;28;20458;-72
2022/11/09 03:40:55;;;;;;;6.05;1.10;;;15.10;99.90;;;;;;5031594;28;20037;-72
2022/11/09 03:43:20;;;;;;;4.50;1.52;;;15.20;99.90;;;;;;5033992;28;20042;-74
2022/11/09 03:45:49;;;;;;;5.55;1.10;;;15.20;99.90;;;;;;5036139;28;20029;-73
2022/11/09 03:48:14;;;;;;;9.65;1.33;;;15.20;99.90;;;;;;5031403;28;20105;-77
2022/11/09 03:50:42;;;;;;;4.93;1.27;;;15.30;99.90;;;;;;5032598;28;20609;-71
2022/11/09 03:53:11;;;;;;;7.53;1.83;;;15.30;99.90;;;;;;5032173;28;20513;-73
2022/11/09 03:55:39;;;;;;;8.80;1.45;;;15.20;99.90;;;;;;5032013;28;20118;-72
2022/11/09 03:58:08;;;;;;;7.25;1.40;;;15.20;99.90;;;;;;5032771;28;20036;-72
2022/11/09 04:00:36;;;;;;;7.80;1.40;;;15.10;99.90;;;;;;5028028;28;20029;-71
2022/11/09 04:03:01;;;;;;;5.50;0.98;;;15.20;99.90;;;;;;5032627;28;20021;-72
2022/11/09 04:05:27;;;;;;;10.93;1.65;;;15.20;99.90;;;;;;5034526;28;20040;-72
2022/11/09 04:07:56;;;;;;;11.00;1.33;;;15.20;99.90;;;;;;5037969;28;20029;-73
2022/11/09 04:10:23;;;;;;;3.90;1.33;;;15.10;99.90;;;;;;5032019;28;20026;-71
2022/11/09 04:12:49;;;;;;;8.60;1.70;;;15.10;99.90;;;;;;5030936;28;20022;-72
2022/11/09 04:15:15;;;;;;;13.93;2.17;;;15.10;99.90;;;;;;5034072;28;20029;-73
2022/11/09 04:17:43;;;;;;;6.43;1.88;;;15.10;99.90;;;;;;5034117;28;20029;-73
2022/11/09 04:20:10;;;;;;;5.90;1.10;;;15.10;99.90;;;;;;5032511;28;20474;-74
2022/11/09 04:22:36;;;;;;;5.30;1.20;;;15.10;99.90;;;;;;5031805;28;20033;-71
2022/11/09 04:25:03;;;;;;;7.88;1.63;;;15.20;99.90;;;;;;5032222;28;20026;-76
2022/11/09 04:27:31;;;;;;;4.18;1.20;;;15.10;99.90;;;;;;5033255;28;20399;-72
2022/11/09 04:29:59;;;;;;;5.82;1.55;;;15.10;99.90;;;;;;5031847;28;20052;-72
2022/11/09 04:32:24;;;;;;;4.22;1.25;;;15.10;99.90;;;;;;5032367;28;20025;-73
2022/11/09 04:34:50;;;;;;;8.63;1.20;;;15.10;99.90;;;;;;5032109;28;20431;-70
2022/11/09 04:37:20;;;;;;;5.15;1.25;;;15.00;99.90;;;;;;5032558;28;20231;-72
2022/11/09 04:39:46;;;;;;;5.10;1.00;;;15.10;99.90;;;;;;5033419;28;20043;-73
2022/11/09 04:42:12;;;;;;;4.95;1.30;;;15.00;99.90;;;;;;5031925;28;20446;-73
2022/11/09 04:44:40;;;;;;;5.70;1.00;;;15.00;99.90;;;;;;5031598;28;20025;-75
2022/11/09 04:47:08;;;;;;;5.07;1.00;;;15.00;99.90;;;;;;5031250;28;20025;-72
2022/11/09 04:49:34;;;;;;;7.32;1.48;;;14.90;99.90;;;;;;5032905;28;20506;-73
2022/11/09 04:51:59;;;;;;;4.70;1.50;;;14.80;99.90;;;;;;5032832;28;20116;-77
2022/11/09 04:54:25;;;;;;;5.50;1.25;;;14.90;99.90;;;;;;5046102;28;20040;-73
2022/11/09 04:56:51;;;;;;;7.53;1.77;;;14.80;99.90;;;;;;5031493;28;20113;-74
2022/11/09 04:59:19;;;;;;;7.40;1.45;;;14.80;99.90;;;;;;5032850;28;20120;-72
2022/11/09 05:01:46;;;;;;;7.47;1.45;;;14.80;99.90;;;;;;5030538;28;20025;-72
2022/11/09 05:04:12;;;;;;;6.50;1.67;;;14.70;99.90;;;;;;5032528;28;20036;-72
2022/11/09 05:06:40;;;;;;;6.88;1.33;;;14.70;99.90;;;;;;5031194;28;20025;-74
2022/11/09 05:09:07;;;;;;;9.05;1.50;;;14.70;99.90;;;;;;5032039;28;20469;-72
2022/11/09 05:11:34;;;;;;;5.72;1.42;;;14.70;99.90;;;;;;5031650;28;20076;-73
2022/11/09 05:14:00;;;;;;;7.00;1.60;;;14.70;99.90;;;;;;5031035;28;20386;-72
2022/11/09 05:16:27;;;;;;;8.00;1.40;;;14.70;99.90;;;;;;5030934;28;20029;-72
2022/11/09 05:18:55;;;;;;;8.48;1.70;;;14.70;99.90;;;;;;5020180;28;20030;-72
2022/11/09 05:21:21;;;;;;;11.13;1.98;;;14.70;99.90;;;;;;5028972;28;20116;-73
2022/11/09 05:23:59;;;;;;;7.43;1.30;;;14.70;99.90;;;;;;5031937;28;20116;-72
2022/11/09 05:26:27;;;;;;;8.02;1.30;;;14.70;99.90;;;;;;5031740;28;20475;-72
2022/11/09 05:28:53;;;;;;;5.72;1.13;;;14.70;99.90;;;;;;5030062;28;20406;-73
2022/11/09 05:31:22;;;;;;;5.25;1.27;;;14.60;99.90;;;;;;5030299;28;20459;-74
2022/11/09 05:33:51;;;;;;;8.05;1.42;;;14.60;99.90;;;;;;5029475;28;20037;-72
2022/11/09 05:36:18;;;;;;;8.07;1.30;;;14.60;99.90;;;;;;5023983;28;20022;-74
2022/11/09 05:38:46;;;;;;;15.60;1.60;;;14.60;99.90;;;;;;5022538;28;20040;-73
2022/11/09 05:41:13;;;;;;;5.05;1.35;;;14.50;99.90;;;;;;5028762;28;20021;-72
2022/11/09 05:43:39;;;;;;;8.73;1.75;;;14.60;99.90;;;;;;5025524;28;20033;-72
2022/11/09 05:46:05;;;;;;;12.85;1.55;;;14.60;99.90;;;;;;5027681;28;20033;-72
2022/11/09 05:48:33;;;;;;;6.30;1.10;;;14.50;99.90;;;;;;5029645;28;20032;-73
2022/11/09 05:51:01;;;;;;;10.15;1.70;;;14.50;99.90;;;;;;5029837;28;20025;-73
2022/11/09 05:53:27;;;;;;;7.70;1.27;;;14.40;99.90;;;;;;5028363;28;20022;-77
2022/11/09 05:55:53;;;;;;;8.68;1.67;;;14.50;99.90;;;;;;5026877;28;20060;-74
2022/11/09 05:58:19;;;;;;;5.05;1.13;;;14.40;99.90;;;;;;5029585;28;20083;-71
2022/11/09 06:00:45;;;;;;;3.13;1.35;;;14.40;99.90;;;;;;5026208;28;20029;-72
2022/11/09 06:03:11;;;;;;;8.52;1.40;;;14.30;99.90;;;;;;5027869;28;20151;-73
2022/11/09 06:05:38;;;;;;;8.15;1.30;;;14.20;99.90;;;;;;5025667;28;20036;-71
2022/11/09 06:08:10;;;;;;;5.72;1.83;;;14.20;99.90;;;;;;5025332;28;20030;-72
2022/11/09 06:10:36;;;;;;;13.45;1.65;;;14.10;99.90;;;;;;5028010;28;20028;-72
2022/11/09 06:13:02;;;;;;;6.00;1.38;;;14.20;99.90;;;;;;5026795;28;20753;-72
2022/11/09 06:15:30;;;;;;;5.60;1.42;;;14.10;99.90;;;;;;5029849;28;20033;-72
2022/11/09 06:17:59;;;;;;;6.18;1.90;;;14.10;99.90;;;;;;5030208;28;20061;-75
2022/11/09 06:20:26;;;;;;;5.68;1.42;;;14.10;99.90;;;;;;5028990;28;20128;-73
2022/11/09 06:22:58;;;;;;;6.40;1.48;;;14.10;99.90;;;;;;5030542;28;20129;-73
2022/11/09 06:25:24;;;;;;;4.75;1.27;;;14.10;99.90;;;;;;5028369;28;20116;-71
2022/11/09 06:27:57;;;;;;;7.07;1.33;;;14.00;99.90;;;;;;5044654;28;20066;-72
2022/11/09 06:30:22;;;;;;;5.43;1.73;;;14.10;99.90;;;;;;5030488;28;20060;-71
2022/11/09 06:32:49;;;;;;;7.63;1.75;;;14.00;99.90;;;;;;5028772;28;20057;-74
2022/11/09 06:35:16;;;;;;;8.68;1.15;;;14.00;99.90;;;;;;5031053;28;20037;-72
2022/11/09 06:37:44;;;;;;;3.90;1.50;;;14.00;99.90;;;;;;5030239;28;20025;-72
2022/11/09 06:40:13;;;;;;;12.35;1.20;;;14.00;99.90;;;;;;5029953;28;20060;-72
2022/11/09 06:42:38;;;;;;;13.38;1.48;;;13.90;99.90;;;;;;5030880;28;20033;-72
2022/11/09 06:45:07;;;;;;;10.73;1.48;;;13.90;99.90;;;;;;5028182;28;20075;-73
2022/11/09 06:47:33;;;;;;;9.38;1.85;;;13.90;99.90;;;;;;5030705;28;20512;-72
2022/11/09 06:49:58;;;;;;;6.30;1.65;;;13.90;99.90;;;;;;5030567;28;20108;-72
2022/11/09 06:52:24;;;;;;;6.55;1.42;;;13.90;99.90;;;;;;5030580;28;20025;-72
2022/11/09 06:54:55;;;;;;;9.88;1.70;;;13.90;99.90;;;;;;5029824;28;20463;-72
2022/11/09 06:57:21;;;;;;;4.78;1.42;;;13.80;99.90;;;;;;5030580;28;20038;-73
2022/11/09 06:59:46;;;;;;;6.72;1.70;;;14.00;99.90;;;;;;5030583;28;20652;-71
2022/11/09 07:02:19;;;;;;;5.85;1.58;;;14.00;99.90;;;;;;5029483;28;20422;-71
2022/11/09 07:04:44;;;;;;;10.48;1.88;;;13.90;99.90;;;;;;5029580;28;20029;-73
2022/11/09 07:07:10;;;;;;;7.00;1.48;;;13.90;99.90;;;;;;5029086;28;20087;-72
2022/11/09 07:09:36;;;;;;;7.70;1.55;;;14.00;99.90;;;;;;5029446;28;20037;-74
2022/11/09 07:12:02;;;;;;;11.18;1.77;;;14.00;99.90;;;;;;5029275;28;20022;-73
2022/11/09 07:14:28;;;;;;;8.50;1.35;;;14.00;99.90;;;;;;5027981;28;20025;-73
2022/11/09 07:16:56;;;;;;;7.78;1.40;;;14.00;99.90;;;;;;5029446;28;20346;-72
2022/11/09 07:19:22;;;;;;;9.10;1.70;;;13.90;99.90;;;;;;5028706;28;20092;-72
2022/11/09 07:21:50;;;;;;;6.90;1.48;;;14.00;99.90;;;;;;5028651;28;20120;-73
2022/11/09 07:24:18;;;;;;;10.10;1.55;;;14.00;99.90;;;;;;5031122;28;20048;-74
2022/11/09 07:26:46;;;;;;;6.28;1.50;;;13.90;99.90;;;;;;5032546;28;20033;-73
2022/11/09 07:29:11;;;;;;;4.95;1.25;;;13.90;99.90;;;;;;5030143;28;20045;-73
2022/11/09 07:31:37;;;;;;;5.65;1.27;;;13.90;99.90;;;;;;5033727;28;20021;-72
2022/11/09 07:34:05;;;;;;;10.73;1.70;;;13.90;99.90;;;;;;5032906;28;20021;-74
2022/11/09 07:36:32;;;;;;;8.23;1.48;;;14.00;99.90;;;;;;5033057;28;20667;-74
2022/11/09 07:38:57;;;;;;;9.75;1.80;;;14.00;99.90;;;;;;5022893;28;20029;-73
2022/11/09 07:41:24;;;;;;;10.32;1.40;;;14.00;99.90;;;;;;5033436;28;20037;-74
2022/11/09 07:43:52;;;;;;;6.45;1.67;;;14.00;99.90;;;;;;5032964;28;20112;-74
2022/11/09 07:46:20;;;;;;;10.05;1.40;;;14.10;99.90;;;;;;5032298;28;20134;-74
2022/11/09 07:48:45;;;;;;;5.68;1.15;;;14.00;99.90;;;;;;5031053;28;20021;-72
2022/11/09 07:51:11;;;;;;;7.88;1.63;;;14.00;99.90;;;;;;5032854;28;20568;-73
2022/11/09 07:53:37;;;;;;;7.57;2.13;;;14.10;99.90;;;;;;5033598;28;20102;-72
2022/11/09 07:56:03;;;;;;;7.30;1.67;;;14.20;99.90;;;;;;5032220;28;20026;-72
2022/11/09 07:58:29;;;;;;;4.82;1.45;;;14.20;99.90;;;;;;5033129;28;20029;-74
2022/11/09 08:00:55;;;;;;;6.93;1.10;;;14.30;99.90;;;;;;5033831;28;20045;-73
2022/11/09 08:03:23;;;;;;;4.75;1.48;;;14.20;99.90;;;;;;5033066;28;20048;-70
2022/11/09 08:05:52;;;;;;;5.40;1.27;;;14.30;99.90;;;;;;5029699;28;20124;-72
2022/11/09 08:08:20;;;;;;;6.93;1.60;;;14.40;99.90;;;;;;5033861;28;20033;-77
2022/11/09 08:10:51;;;;;;;9.18;1.40;;;14.40;99.90;;;;;;5031956;28;20029;-73
2022/11/09 08:13:19;;;;;;;8.70;2.20;;;14.40;99.90;;;;;;5025949;28;20137;-73
2022/11/09 08:15:48;;;;;;;12.32;1.70;;;14.50;99.90;;;;;;5030235;28;20048;-72
2022/11/09 08:18:19;;;;;;;5.20;1.52;;;14.40;99.90;;;;;;5030211;28;20095;-75
2022/11/09 08:20:45;;;;;;;7.07;1.23;;;14.60;99.90;;;;;;5029248;28;20026;-72
2022/11/09 08:23:15;;;;;;;4.53;1.10;;;14.50;99.90;;;;;;5030741;28;20135;-76
2022/11/09 08:25:41;;;;;;;8.02;1.27;;;14.60;99.90;;;;;;5032281;28;20029;-76
2022/11/09 08:28:08;;;;;;;5.20;1.00;;;14.70;99.90;;;;;;5032737;28;20029;-70
2022/11/09 08:30:35;;;;;;;8.70;1.60;;;14.70;99.90;;;;;;5032453;28;20120;-78
2022/11/09 08:33:02;;;;;;;7.72;1.73;;;14.80;99.90;;;;;;5050907;28;20017;-72
2022/11/09 08:35:31;;;;;;;7.30;1.77;;;14.80;99.90;;;;;;5030458;28;20454;-74
2022/11/09 08:38:01;;;;;;;9.48;1.35;;;14.90;99.90;;;;;;5030755;28;20434;-73
2022/11/09 08:40:27;;;;;;;12.77;1.33;;;14.90;99.90;;;;;;5024566;28;20109;-72
2022/11/09 08:42:52;;;;;;;4.65;0.90;;;15.00;99.90;;;;;;5031931;28;20124;-74
2022/11/09 08:45:21;;;;;;;4.85;1.20;;;15.10;99.90;;;;;;5032507;28;20543;-72
2022/11/09 08:47:47;;;;;;;6.95;1.45;;;15.00;99.90;;;;;;5031331;28;20036;-73
2022/11/09 08:50:15;;;;;;;8.35;1.63;;;15.10;99.90;;;;;;5032848;28;20029;-71
2022/11/09 08:52:43;;;;;;;4.28;1.13;;;15.10;99.90;;;;;;5029111;28;20034;-73
2022/11/09 08:55:09;;;;;;;7.95;1.58;;;15.20;99.90;;;;;;5032265;28;20112;-76
2022/11/09 08:57:37;;;;;;;7.57;1.58;;;15.20;99.90;;;;;;5030298;28;20173;-74
2022/11/09 09:00:06;;;;;;;7.68;1.60;;;15.30;99.90;;;;;;5030938;28;20096;-72
2022/11/09 09:02:34;;;;;;;7.78;1.33;;;15.40;99.90;;;;;;5028924;28;20021;-76
2022/11/09 09:05:03;;;;;;;7.28;1.38;;;15.50;99.90;;;;;;5031888;28;20033;-74
2022/11/09 09:07:30;;;;;;;8.20;1.20;;;15.40;99.90;;;;;;5031456;28;20100;-71
2022/11/09 09:09:56;;;;;;;7.25;1.42;;;15.40;99.90;;;;;;5031877;28;20029;-78
2022/11/09 09:12:22;;;;;;;4.93;1.13;;;15.50;99.90;;;;;;5030553;28;20028;-72
2022/11/09 09:14:49;;;;;;;10.23;1.50;;;15.60;99.90;;;;;;5031848;28;20102;-76
2022/11/09 09:17:14;;;;;;;7.45;1.60;;;15.70;99.90;;;;;;5031173;28;20371;-76
2022/11/09 09:19:40;;;;;;;6.75;1.48;;;15.70;99.90;;;;;;5031446;28;20021;-73
2022/11/09 09:22:06;;;;;;;7.25;1.55;;;15.60;99.90;;;;;;5029985;28;20085;-75
2022/11/09 09:24:32;;;;;;;6.18;1.70;;;15.70;99.90;;;;;;5030797;28;20033;-73
2022/11/09 09:26:57;;;;;;;6.20;1.27;;;15.80;99.90;;;;;;5029993;28;20053;-72
2022/11/09 09:29:25;;;;;;;10.95;1.77;;;15.80;99.90;;;;;;5030749;28;20075;-76
2022/11/09 09:31:51;;;;;;;5.97;1.33;;;15.70;99.90;;;;;;5027725;28;20067;-75
2022/11/09 09:34:19;;;;;;;4.05;0.90;;;15.60;99.90;;;;;;5028978;28;20025;-72
2022/11/09 09:36:45;;;;;;;6.10;1.50;;;15.50;99.90;;;;;;5028382;28;20462;-72
2022/11/09 09:39:11;;;;;;;8.00;1.52;;;15.60;99.90;;;;;;5031124;28;20086;-73
2022/11/09 09:41:52;;;;;;;5.20;1.10;;;15.80;99.90;;;;;;5029549;28;20022;-72
2022/11/09 09:44:33;;;;;;;9.70;1.23;;;15.70;99.90;;;;;;5030420;28;20072;-73
2022/11/09 09:47:16;;;;;;;8.15;1.25;;;15.70;99.90;;;;;;5030102;28;20454;-74
2022/11/09 09:49:58;;;;;;;7.35;1.50;;;15.80;99.90;;;;;;5032834;28;20045;-75
2022/11/09 09:52:39;;;;;;;4.63;1.05;;;15.90;99.90;;;;;;5027149;28;20269;-75
2022/11/09 09:55:33;;;;;;;5.55;1.15;;;15.90;99.90;;;;;;5029476;28;20030;-72
2022/11/09 09:58:17;;;;;;;1.63;0.90;;;15.80;99.90;;;;;;5029645;28;20351;-71
2022/11/09 10:00:44;;;;;;;10.05;1.45;;;16.00;99.90;;;;;;5028625;28;20040;-74
2022/11/09 10:03:18;;;;;;;4.85;1.20;;;16.10;99.90;;;;;;5028594;28;20033;-71
2022/11/09 10:06:09;;;;;;;4.30;1.25;;;16.10;99.90;;;;;;5030126;28;20470;-72
2022/11/09 10:09:05;;;;;;;6.20;1.13;;;16.20;99.90;;;;;;5029128;28;20021;-76
2022/11/09 10:11:48;;;;;;;6.10;1.60;;;16.20;99.90;;;;;;5021265;28;20516;-74
2022/11/09 10:14:32;;;;;;;3.95;1.17;;;16.20;99.90;;;;;;5028380;28;20088;-73
2022/11/09 10:17:20;;;;;;;5.82;1.15;;;16.20;99.90;;;;;;5029867;28;20040;-74
2022/11/09 10:20:22;;;;;;;6.22;1.33;;;16.20;99.90;;;;;;5029914;28;20030;-72
2022/11/09 10:23:09;;;;;;;6.53;1.20;;;16.10;99.90;;;;;;5029520;28;20048;-73
2022/11/09 10:25:37;;;;;;;8.68;1.30;;;16.00;99.90;;;;;;5028706;28;20051;-74
2022/11/09 10:28:12;;;;;;;6.85;1.70;;;16.20;99.90;;;;;;5030080;28;20033;-73
2022/11/09 10:30:38;;;;;;;4.20;1.10;;;16.40;99.90;;;;;;5030519;28;20101;-73
2022/11/09 10:33:10;;;;;;;7.78;1.40;;;16.40;99.90;;;;;;5030253;28;20359;-75
2022/11/09 10:35:56;;;;;;;7.13;1.30;;;16.70;99.90;;;;;;5045071;28;20013;-76
2022/11/09 10:38:30;;;;;;;9.02;1.63;;;17.10;99.90;;;;;;5029640;28;20072;-74
2022/11/09 10:41:12;;;;;;;8.77;1.95;;;17.00;99.90;;;;;;5028676;28;20029;-76
2022/11/09 10:43:38;;;;;;;9.43;1.77;;;17.00;99.90;;;;;;5026620;28;20109;-70
2022/11/09 10:46:06;;;;;;;7.93;1.30;;;17.00;99.90;;;;;;5030346;28;20539;-76
2022/11/09 10:48:38;;;;;;;7.85;1.83;;;17.20;99.90;;;;;;5029645;28;20096;-73
2022/11/09 10:51:05;;;;;;;5.03;1.20;;;17.30;99.90;;;;;;5030049;28;20074;-71
2022/11/09 10:53:32;;;;;;;4.18;1.30;;;17.50;99.90;;;;;;5029509;28;20033;-71
2022/11/09 10:56:14;;;;;;;10.77;1.05;;;17.50;99.90;;;;;;5029947;28;20451;-74
2022/11/09 10:58:52;;;;;;;4.57;1.27;;;17.40;99.90;;;;;;5030188;28;20033;-73
2022/11/09 11:01:36;;;;;;;9.75;1.08;;;17.70;99.90;;;;;;5033735;28;20785;-77
2022/11/09 11:04:19;;;;;;;8.07;1.33;;;18.00;99.90;;;;;;5045016;28;20029;-71
2022/11/09 11:06:47;;;;;;;3.92;1.35;;;18.10;99.90;;;;;;5030952;28;20601;-72
2022/11/09 11:09:18;;;;;;;10.52;1.83;;;17.90;99.90;;;;;;5032117;28;20030;-73
2022/11/09 11:11:44;;;;;;;8.63;1.40;;;18.10;99.90;;;;;;5033798;28;20026;-73
2022/11/09 11:14:21;;;;;;;5.35;1.52;;;18.20;99.90;;;;;;5030957;28;20072;-71
2022/11/09 11:16:49;;;;;;;6.40;1.23;;;18.40;99.90;;;;;;5048143;28;20036;-76
2022/11/09 11:19:30;;;;;;;2.45;1.13;;;18.50;99.90;;;;;;5032980;28;20053;-74
2022/11/09 11:22:11;;;;;;;6.40;1.40;;;18.20;99.90;;;;;;5031661;28;20116;-71
2022/11/09 11:25:01;;;;;;;7.85;1.33;;;18.10;99.90;;;;;;5031832;28;20136;-72
2022/11/09 11:27:49;;;;;;;10.68;1.42;;;18.10;99.50;;;;;;5024468;28;20370;-75
2022/11/09 11:30:18;;;;;;;8.30;1.35;;;18.20;99.50;;;;;;5030733;28;20037;-76
2022/11/09 11:32:45;;;;;;;7.10;1.70;;;18.40;97.70;;;;;;5028442;28;20030;-72
2022/11/09 11:35:21;;;;;;;7.05;1.10;;;18.10;97.90;;;;;;5032264;28;20022;-71
2022/11/09 11:37:55;;;;;;;6.35;1.60;;;17.90;98.40;;;;;;5032086;28;20292;-72
2022/11/09 11:40:40;;;;;;;5.15;1.25;;;17.70;98.70;;;;;;5031856;28;20030;-71
2022/11/09 11:43:17;;;;;;;7.38;1.50;;;17.60;99.20;;;;;;5032167;28;20111;-75
2022/11/09 11:46:20;;;;;;;4.55;1.13;;;17.50;98.70;;;;;;5032704;28;20030;-74
2022/11/09 11:48:48;;;;;;;5.50;1.63;;;17.60;99.20;;;;;;5033691;28;20026;-77
2022/11/09 11:51:26;;;;;;;6.70;1.48;;;18.00;98.80;;;;;;5032010;28;20312;-76
2022/11/09 11:54:08;;;;;;;4.75;0.88;;;18.10;98.20;;;;;;5023528;28;20437;-74
2022/11/09 11:57:01;;;;;;;5.45;1.10;;;17.70;97.90;;;;;;5032576;28;20042;-72
2022/11/09 11:59:36;;;;;;;4.85;1.23;;;17.40;98.40;;;;;;5024330;28;20026;-76
2022/11/09 12:02:17;;;;;;;5.10;1.40;;;17.20;99.10;;;;;;5046731;28;20037;-76
2022/11/09 12:05:01;;;;;;;7.32;1.38;;;17.10;99.80;;;;;;5021287;28;20037;-75
2022/11/09 12:08:03;;;;;;;11.52;1.35;;;17.00;99.90;;;;;;5048263;28;20108;-73
2022/11/09 12:10:40;;;;;;;7.10;1.80;;;16.90;99.90;;;;;;5031374;28;20017;-76
2022/11/09 12:13:16;;;;;;;6.28;1.08;;;16.80;99.90;;;;;;5030364;28;20033;-76
2022/11/09 12:16:25;;;;;;;7.68;1.30;;;16.70;99.90;;;;;;5032763;28;20064;-74
2022/11/09 12:19:03;;;;;;;5.03;1.05;;;16.70;99.90;;;;;;4992523;28;20130;-76
2022/11/09 12:21:35;;;;;;;5.82;1.00;;;16.70;99.90;;;;;;5030673;28;20107;-75
2022/11/09 12:24:03;;;;;;;6.63;1.25;;;16.80;99.90;;;;;;5031894;28;20335;-76
2022/11/09 12:26:40;;;;;;;9.10;1.30;;;17.00;99.90;;;;;;5028909;28;20033;-71
2022/11/09 12:29:06;;;;;;;13.40;3.47;;;17.50;99.90;;;;;;5030368;28;20450;-72
2022/11/09 12:31:47;;;;;;;7.75;1.48;;;18.10;99.00;;;;;;5029641;28;20029;-72
2022/11/09 12:34:46;;;;;;;11.02;1.67;;;18.20;96.90;;;;;;5031210;28;20025;-75
2022/11/09 12:37:26;;;;;;;11.77;1.33;;;18.20;97.10;;;;;;5032106;28;20037;-73
2022/11/09 12:39:54;;;;;;;8.05;1.30;;;18.30;96.50;;;;;;5021629;28;20068;-72
2022/11/09 12:42:30;;;;;;;6.10;1.17;;;18.10;96.40;;;;;;5031208;28;20026;-72
2022/11/09 12:45:41;;;;;;;7.03;1.13;;;18.30;96.10;;;;;;5030006;28;20589;-71
2022/11/09 12:48:28;;;;;;;7.53;1.48;;;18.20;96.30;;;;;;5025591;28;20128;-75
2022/11/09 12:50:57;;;;;;;7.53;1.17;;;17.70;96.80;;;;;;5027864;28;20037;-71
2022/11/09 12:53:26;;;;;;;4.85;1.20;;;18.10;96.60;;;;;;5031494;28;20156;-72
2022/11/09 12:56:04;;;;;;;5.40;1.08;;;18.20;95.60;;;;;;5030631;28;20068;-74
2022/11/09 12:58:33;;;;;;;12.57;1.35;;;17.60;96.40;;;;;;5031455;28;20043;-76
2022/11/09 13:01:02;;;;;;;7.22;1.00;;;18.20;95.80;;;;;;5030590;28;20129;-71